createdAt,value
2022-08-14T00:01:03.959Z,16.83
2022-08-14T00:03:37.186Z,14.70
2022-08-14T00:06:25.763Z,15.68
2022-08-14T00:08:50.530Z,14.77
2022-08-14T00:11:17.553Z,13.80
2022-08-14T00:13:44.139Z,13.25
2022-08-14T00:16:41.664Z,13.55
2022-08-14T00:19:19.385Z,13.13
2022-08-14T00:21:51.036Z,13.93
2022-08-14T00:24:28.441Z,13.20
2022-08-14T00:26:57.371Z,14.02
2022-08-14T00:29:29.588Z,12.38
2022-08-14T00:32:00.622Z,13.95
2022-08-14T00:34:48.667Z,13.50
2022-08-14T00:37:15.809Z,12.25
2022-08-14T00:39:42.598Z,13.07
2022-08-14T00:42:21.388Z,12.32
2022-08-14T00:44:56.288Z,12.55
2022-08-14T00:47:24.902Z,12.38
2022-08-14T00:49:53.718Z,12.15
2022-08-14T00:52:20.387Z,12.18
2022-08-14T00:54:47.965Z,12.40
2022-08-14T00:57:14.851Z,12.15
2022-08-14T00:59:41.575Z,12.60
2022-08-14T01:02:09.478Z,12.05
2022-08-14T01:04:53.343Z,13.63
2022-08-14T01:07:22.438Z,11.35
2022-08-14T01:09:50.009Z,12.57
2022-08-14T01:12:26.913Z,12.68
2022-08-14T01:14:58.043Z,11.73
2022-08-14T01:17:45.944Z,12.63
2022-08-14T01:20:35.323Z,12.45
2022-08-14T01:23:16.326Z,12.18
2022-08-14T01:25:46.235Z,12.48
2022-08-14T01:28:46.920Z,13.15
2022-08-14T01:30:59.549Z,12.23
2022-08-14T01:33:29.365Z,14.27
2022-08-14T01:36:03.476Z,11.77
2022-08-14T01:38:37.044Z,12.27
2022-08-14T01:41:14.814Z,11.75
2022-08-14T01:43:45.263Z,11.98
2022-08-14T01:46:24.786Z,11.35
2022-08-14T01:48:52.483Z,13.32
2022-08-14T01:51:23.083Z,11.45
2022-08-14T01:53:55.726Z,11.18
2022-08-14T01:56:37.132Z,12.23
2022-08-14T01:59:06.668Z,11.05
2022-08-14T02:01:37.723Z,11.88
2022-08-14T02:04:04.633Z,12.35
2022-08-14T02:06:47.604Z,12.88
2022-08-14T02:09:22.532Z,13.07
2022-08-14T02:11:49.723Z,12.45
2022-08-14T02:14:31.792Z,13.30
2022-08-14T02:16:59.006Z,12.85
2022-08-14T02:19:31.682Z,11.77
2022-08-14T02:22:03.019Z,13.63
2022-08-14T02:24:39.014Z,17.65
2022-08-14T02:28:25.074Z,13.05
2022-08-14T02:30:01.212Z,11.82
2022-08-14T02:32:36.728Z,14.57
2022-08-14T02:35:11.582Z,13.10
2022-08-14T02:37:47.231Z,11.88
2022-08-14T02:40:16.441Z,12.68
2022-08-14T02:42:55.287Z,14.00
2022-08-14T02:45:24.942Z,12.00
2022-08-14T02:48:00.756Z,13.48
2022-08-14T02:50:28.506Z,13.93
2022-08-14T02:53:03.378Z,13.88
2022-08-14T02:55:31.241Z,13.48
2022-08-14T02:58:03.409Z,12.57
2022-08-14T03:00:33.616Z,14.43
2022-08-14T03:03:01.834Z,12.73
2022-08-14T03:05:33.153Z,12.60
2022-08-14T03:08:07.942Z,13.25
2022-08-14T03:10:34.816Z,13.55
2022-08-14T03:13:04.559Z,13.98
2022-08-14T03:15:32.054Z,14.02
2022-08-14T03:18:00.941Z,13.73
2022-08-14T03:20:28.979Z,13.02
2022-08-14T03:23:03.097Z,13.82
2022-08-14T03:25:34.366Z,13.98
2022-08-14T03:28:07.911Z,14.60
2022-08-14T03:30:41.565Z,13.90
2022-08-14T03:33:11.456Z,13.25
2022-08-14T03:36:05.601Z,15.48
2022-08-14T03:39:14.408Z,12.73
2022-08-14T03:41:16.877Z,14.27
2022-08-14T03:43:43.931Z,13.88
2022-08-14T03:46:52.381Z,16.08
2022-08-14T03:48:57.987Z,15.45
2022-08-14T03:51:28.865Z,16.60
2022-08-14T03:53:57.208Z,15.15
2022-08-14T03:56:25.987Z,14.50
2022-08-14T03:58:53.034Z,15.15
2022-08-14T04:01:21.635Z,15.23
2022-08-14T04:03:48.349Z,18.25
2022-08-14T04:06:21.957Z,15.40
2022-08-14T04:08:54.952Z,16.88
2022-08-14T04:11:25.133Z,16.65
2022-08-14T04:13:51.762Z,19.17
2022-08-14T04:16:20.651Z,17.52
2022-08-14T04:18:48.338Z,15.02
2022-08-14T04:21:16.297Z,16.25
2022-08-14T04:23:43.589Z,15.88
2022-08-14T04:26:14.457Z,15.95
2022-08-14T04:29:08.531Z,19.10
2022-08-14T04:32:57.570Z,14.82
2022-08-14T04:34:20.612Z,15.70
2022-08-14T04:37:09.243Z,15.93
2022-08-14T04:39:56.891Z,15.60
2022-08-14T04:42:47.272Z,17.65
2022-08-14T04:45:18.249Z,16.63
2022-08-14T04:48:03.425Z,16.58
2022-08-14T04:50:35.299Z,19.15
2022-08-14T04:53:12.989Z,16.20
2022-08-14T04:55:45.985Z,20.13
2022-08-14T04:58:21.900Z,19.13
2022-08-14T05:00:59.718Z,17.27
2022-08-14T05:03:27.346Z,15.07
2022-08-14T05:05:55.518Z,16.83
2022-08-14T05:08:31.762Z,16.15
2022-08-14T05:11:12.010Z,20.45
2022-08-14T05:16:31.739Z,19.02
2022-08-14T05:19:18.755Z,19.63
2022-08-14T05:21:56.100Z,19.15
2022-08-14T05:24:28.030Z,20.30
2022-08-14T05:26:54.738Z,23.08
2022-08-14T05:29:23.398Z,23.08
2022-08-14T05:31:55.804Z,25.10
2022-08-14T05:34:28.949Z,25.52
2022-08-14T05:37:02.308Z,29.45
2022-08-14T05:39:31.675Z,27.92
2022-08-14T05:41:59.088Z,28.23
2022-08-14T05:44:30.197Z,26.75
2022-08-14T05:47:02.936Z,29.35
2022-08-14T05:49:33.142Z,28.45
2022-08-14T05:52:01.758Z,27.48
2022-08-14T05:54:28.501Z,27.65
2022-08-14T05:57:02.030Z,23.40
2022-08-14T05:59:30.249Z,27.50
2022-08-14T06:02:05.897Z,25.77
2022-08-14T06:04:32.790Z,28.50
2022-08-14T06:06:59.411Z,27.63
2022-08-14T06:09:25.974Z,30.65
2022-08-14T06:11:52.805Z,29.88
2022-08-14T06:14:23.842Z,28.30
2022-08-14T06:16:51.993Z,27.08
2022-08-14T06:19:19.870Z,25.60
2022-08-14T06:21:46.495Z,25.48
2022-08-14T06:24:18.029Z,27.88
2022-08-14T06:26:54.260Z,27.40
2022-08-14T06:29:23.763Z,19.45
2022-08-14T06:31:59.973Z,20.75
2022-08-14T06:35:04.694Z,21.88
2022-08-14T06:37:13.679Z,21.13
2022-08-14T06:39:44.389Z,19.75
2022-08-14T06:42:22.306Z,16.13
2022-08-14T06:44:58.422Z,18.05
2022-08-14T06:47:25.165Z,19.10
2022-08-14T06:49:57.749Z,15.38
2022-08-14T06:52:24.803Z,13.98
2022-08-14T06:54:51.493Z,17.33
2022-08-14T06:57:18.586Z,14.23
2022-08-14T06:59:48.028Z,11.38
2022-08-14T07:02:35.867Z,10.73
2022-08-14T07:05:23.042Z,10.90
2022-08-14T07:07:50.583Z,11.32
2022-08-14T07:10:17.692Z,11.35
2022-08-14T07:13:01.899Z,10.82
2022-08-14T07:15:32.466Z,9.18
2022-08-14T07:18:03.385Z,11.05
2022-08-14T07:20:30.724Z,11.15
2022-08-14T07:23:07.709Z,13.45
2022-08-14T07:25:39.161Z,14.68
2022-08-14T07:28:09.759Z,14.02
2022-08-14T07:30:41.867Z,13.10
2022-08-14T07:33:10.748Z,16.42
2022-08-14T07:35:58.195Z,15.90
2022-08-14T07:38:32.138Z,13.75
2022-08-14T07:41:03.423Z,14.05
2022-08-14T07:43:33.524Z,14.98
2022-08-14T07:46:00.637Z,13.88
2022-08-14T07:48:34.791Z,13.70
2022-08-14T07:51:03.847Z,14.68
2022-08-14T07:53:40.647Z,13.93
2022-08-14T07:56:09.083Z,14.07
2022-08-14T07:58:54.370Z,14.65
2022-08-14T08:01:25.563Z,16.38
2022-08-14T08:03:57.352Z,17.17
2022-08-14T08:06:26.731Z,16.42
2022-08-14T08:09:01.153Z,19.67
2022-08-14T08:11:30.310Z,17.25
2022-08-14T08:14:03.194Z,14.45
2022-08-14T08:16:29.886Z,17.52
2022-08-14T08:19:01.770Z,18.10
2022-08-14T08:21:33.404Z,15.25
2022-08-14T08:24:02.300Z,15.13
2022-08-14T08:26:31.121Z,16.00
2022-08-14T08:28:58.098Z,16.67
2022-08-14T08:31:32.875Z,15.57
2022-08-14T08:34:04.112Z,13.65
2022-08-14T08:36:39.625Z,11.52
2022-08-14T08:39:18.665Z,13.38
2022-08-14T08:41:53.191Z,10.98
2022-08-14T08:44:31.738Z,10.73
2022-08-14T08:47:06.233Z,10.68
2022-08-14T08:49:58.928Z,9.60
2022-08-14T08:52:33.177Z,8.70
2022-08-14T08:55:05.259Z,9.63
2022-08-14T08:57:40.872Z,8.98
2022-08-14T09:00:24.920Z,9.02
2022-08-14T09:02:54.682Z,7.75
2022-08-14T09:05:26.323Z,8.80
2022-08-14T09:07:56.518Z,8.40
2022-08-14T09:10:23.504Z,8.30
2022-08-14T09:12:56.352Z,8.85
2022-08-14T09:15:24.206Z,7.88
2022-08-14T09:17:51.024Z,8.13
2022-08-14T09:20:25.895Z,7.68
2022-08-14T09:22:56.313Z,8.32
2022-08-14T09:26:01.196Z,7.63
2022-08-14T09:28:09.668Z,8.05
2022-08-14T09:30:42.109Z,6.93
2022-08-14T09:33:31.082Z,8.18
2022-08-14T09:36:35.919Z,8.23
2022-08-14T09:39:14.870Z,7.55
2022-08-14T09:42:21.502Z,7.28
2022-08-14T09:45:11.361Z,6.60
2022-08-14T09:47:42.295Z,7.55
2022-08-14T09:50:28.512Z,6.70
2022-08-14T09:52:58.109Z,7.80
2022-08-14T09:55:27.919Z,6.93
2022-08-14T09:58:01.738Z,10.10
2022-08-14T10:01:06.117Z,7.57
2022-08-14T10:03:41.820Z,7.85
2022-08-14T10:06:12.866Z,6.38
2022-08-14T10:08:45.279Z,6.75
2022-08-14T10:11:19.512Z,6.18
2022-08-14T10:13:55.964Z,7.25
2022-08-14T10:16:33.670Z,6.85
2022-08-14T10:19:16.600Z,6.13
2022-08-14T10:23:12.581Z,7.57
2022-08-14T10:24:50.977Z,8.27
2022-08-14T10:27:23.585Z,8.05
2022-08-14T10:29:54.689Z,6.35
2022-08-14T10:32:28.329Z,5.88
2022-08-14T10:35:13.306Z,4.75
2022-08-14T10:37:41.653Z,6.57
2022-08-14T10:40:44.179Z,6.13
2022-08-14T10:42:58.239Z,5.30
2022-08-14T10:45:35.392Z,3.70
2022-08-14T10:48:07.712Z,3.42
2022-08-14T10:50:38.819Z,3.22
2022-08-14T10:53:08.017Z,3.03
2022-08-14T10:55:45.695Z,12.85
2022-08-14T10:58:12.679Z,11.35
2022-08-14T11:00:47.416Z,8.10
2022-08-14T11:03:26.783Z,7.20
2022-08-14T11:06:11.248Z,8.15
2022-08-14T11:08:39.972Z,8.00
2022-08-14T11:11:07.901Z,7.40
2022-08-14T11:13:36.228Z,9.07
2022-08-14T11:16:03.338Z,6.03
2022-08-14T11:18:35.749Z,11.25
2022-08-14T11:21:03.515Z,7.65
2022-08-14T11:23:38.668Z,5.25
2022-08-14T11:26:07.259Z,6.68
2022-08-14T11:28:47.211Z,6.68
2022-08-14T11:31:23.808Z,7.35
2022-08-14T11:33:53.256Z,8.18
2022-08-14T11:36:22.958Z,7.32
2022-08-14T11:38:49.554Z,8.85
2022-08-14T11:41:18.090Z,7.93
2022-08-14T11:43:57.946Z,8.20
2022-08-14T11:46:30.469Z,7.75
2022-08-14T11:49:10.909Z,10.77
2022-08-14T11:51:53.805Z,6.70
2022-08-14T11:54:33.728Z,7.95
2022-08-14T11:57:02.112Z,7.25
2022-08-14T11:59:33.520Z,7.32
2022-08-14T12:03:01.298Z,8.60
2022-08-14T12:05:04.045Z,6.72
2022-08-14T12:07:32.030Z,7.88
2022-08-14T12:09:59.875Z,6.05
2022-08-14T12:12:35.860Z,5.88
2022-08-14T12:15:04.658Z,6.10
2022-08-14T12:17:47.748Z,6.10
2022-08-14T12:20:30.269Z,6.82
2022-08-14T12:23:00.715Z,6.00
2022-08-14T12:25:34.941Z,6.40
2022-08-14T12:28:05.738Z,5.95
2022-08-14T12:30:43.930Z,5.63
2022-08-14T12:33:27.160Z,5.47
2022-08-14T12:36:08.303Z,5.55
2022-08-14T12:38:38.953Z,6.78
2022-08-14T12:41:28.214Z,5.93
2022-08-14T12:44:02.062Z,6.15
2022-08-14T12:46:40.689Z,5.90
2022-08-14T12:49:11.102Z,5.93
2022-08-14T12:51:37.806Z,6.57
2022-08-14T12:54:19.422Z,6.45
2022-08-14T12:57:08.619Z,5.85
2022-08-14T12:59:42.576Z,5.78
2022-08-14T13:02:19.848Z,5.70
2022-08-14T13:04:49.041Z,9.10
2022-08-14T13:07:17.427Z,6.13
2022-08-14T13:09:45.203Z,4.68
2022-08-14T13:12:32.576Z,5.60
2022-08-14T13:15:01.122Z,6.00
2022-08-14T13:17:28.292Z,5.70
2022-08-14T13:19:57.167Z,5.43
2022-08-14T13:22:33.161Z,6.22
2022-08-14T13:25:00.718Z,6.07
2022-08-14T13:27:31.864Z,6.30
2022-08-14T13:29:59.111Z,4.93
2022-08-14T13:32:25.914Z,6.20
2022-08-14T13:34:52.907Z,6.53
2022-08-14T13:37:19.503Z,6.80
2022-08-14T13:39:56.874Z,5.97
2022-08-14T13:42:26.451Z,6.75
2022-08-14T13:44:57.279Z,6.95
2022-08-14T13:47:29.657Z,7.28
2022-08-14T13:50:02.864Z,6.88
2022-08-14T13:52:51.376Z,6.00
2022-08-14T13:55:23.090Z,6.15
2022-08-14T13:58:03.037Z,6.30
2022-08-14T14:00:32.728Z,6.75
2022-08-14T14:02:59.702Z,5.70
2022-08-14T14:05:26.507Z,6.88
2022-08-14T14:08:18.912Z,6.82
2022-08-14T14:10:59.803Z,5.88
2022-08-14T14:13:26.495Z,6.28
2022-08-14T14:15:58.169Z,5.30
2022-08-14T14:18:34.224Z,6.05
2022-08-14T14:21:02.400Z,5.47
2022-08-14T14:23:29.330Z,6.20
2022-08-14T14:25:57.001Z,5.97
2022-08-14T14:28:25.551Z,5.97
2022-08-14T14:30:54.165Z,5.60
2022-08-14T14:33:44.414Z,6.22
2022-08-14T14:36:07.968Z,5.60
2022-08-14T14:38:41.013Z,5.43
2022-08-14T14:41:07.572Z,5.45
2022-08-14T14:43:35.767Z,5.03
2022-08-14T14:46:06.041Z,5.15
2022-08-14T14:48:37.718Z,5.07
2022-08-14T14:51:04.491Z,4.55
2022-08-14T14:53:39.202Z,4.78
2022-08-14T14:56:50.605Z,3.97
2022-08-14T14:58:52.544Z,2.88
2022-08-14T15:01:23.928Z,3.55
2022-08-14T15:03:54.127Z,3.83
2022-08-14T15:06:21.820Z,3.92
2022-08-14T15:09:00.079Z,3.65
2022-08-14T15:11:30.511Z,3.97
2022-08-14T15:13:58.588Z,4.35
2022-08-14T15:16:27.037Z,4.57
2022-08-14T15:18:53.768Z,4.80
2022-08-14T15:21:20.258Z,5.00
2022-08-14T15:23:50.684Z,4.25
2022-08-14T15:26:31.269Z,4.18
2022-08-14T15:29:04.898Z,4.45
2022-08-14T15:31:34.946Z,4.28
2022-08-14T15:34:43.366Z,3.30
2022-08-14T15:36:58.965Z,4.30
2022-08-14T15:39:26.117Z,4.20
2022-08-14T15:41:57.346Z,3.35
2022-08-14T15:44:28.019Z,3.40
2022-08-14T15:46:59.808Z,3.92
2022-08-14T15:49:33.145Z,3.50
2022-08-14T15:52:04.262Z,3.05
2022-08-14T15:54:31.911Z,3.28
2022-08-14T15:57:02.546Z,3.95
2022-08-14T15:59:49.570Z,3.60
2022-08-14T16:02:16.307Z,3.42
2022-08-14T16:04:45.923Z,2.55
2022-08-14T16:07:17.421Z,2.53
2022-08-14T16:09:45.221Z,3.20
2022-08-14T16:12:11.854Z,3.20
2022-08-14T16:14:45.350Z,2.90
2022-08-14T16:17:13.381Z,3.35
2022-08-14T16:19:44.214Z,3.40
2022-08-14T16:22:58.495Z,2.67
2022-08-14T16:25:00.358Z,3.40
2022-08-14T16:30:24.948Z,2.90
2022-08-14T16:32:56.255Z,3.70
2022-08-14T16:35:26.405Z,2.92
2022-08-14T16:38:19.804Z,3.30
2022-08-14T16:41:15.056Z,2.70
2022-08-14T16:43:44.158Z,2.80
2022-08-14T16:46:15.072Z,2.78
2022-08-14T16:48:54.781Z,1.90
2022-08-14T16:51:23.930Z,2.38
2022-08-14T16:53:50.443Z,2.58
2022-08-14T16:56:23.658Z,2.03
2022-08-14T16:59:05.002Z,2.15
2022-08-14T17:01:31.782Z,2.40
2022-08-14T17:04:08.744Z,2.25
2022-08-14T17:06:45.364Z,4.10
2022-08-14T17:09:31.587Z,2.72
2022-08-14T17:12:33.761Z,2.30
2022-08-14T17:15:11.330Z,2.67
2022-08-14T17:17:42.912Z,2.22
2022-08-14T17:20:39.467Z,2.38
2022-08-14T17:23:10.875Z,2.42
2022-08-14T17:25:38.073Z,2.53
2022-08-14T17:28:51.085Z,2.25
2022-08-14T17:31:08.369Z,2.53
2022-08-14T17:33:44.294Z,4.80
2022-08-14T17:36:21.650Z,2.70
2022-08-14T17:39:07.057Z,2.72
2022-08-14T17:42:02.075Z,4.65
2022-08-14T17:44:34.081Z,3.63
2022-08-14T17:47:13.627Z,3.42
2022-08-14T17:49:45.111Z,3.22
2022-08-14T17:52:33.913Z,2.70
2022-08-14T17:55:02.396Z,5.57
2022-08-14T17:57:35.643Z,3.33
2022-08-14T18:00:12.995Z,3.15
2022-08-14T18:02:41.442Z,3.67
2022-08-14T18:05:17.996Z,3.58
2022-08-14T18:08:31.415Z,3.85
2022-08-14T18:10:54.821Z,4.20
2022-08-14T18:13:50.746Z,3.35
2022-08-14T18:16:20.197Z,2.88
2022-08-14T18:18:48.726Z,3.63
2022-08-14T18:21:41.042Z,4.45
2022-08-14T18:24:02.751Z,4.18
2022-08-14T18:26:37.054Z,3.83
2022-08-14T18:29:07.637Z,3.72
2022-08-14T18:31:44.173Z,4.30
2022-08-14T18:34:31.873Z,4.22
2022-08-14T18:37:03.681Z,4.30
2022-08-14T18:40:02.540Z,5.47
2022-08-14T18:42:34.966Z,4.18
2022-08-14T18:45:01.871Z,4.15
2022-08-14T18:47:32.722Z,4.00
2022-08-14T18:50:26.218Z,5.47
2022-08-14T18:52:54.723Z,4.70
2022-08-14T18:55:21.692Z,4.32
2022-08-14T18:58:00.194Z,6.00
2022-08-14T19:00:32.130Z,6.28
2022-08-14T19:03:00.111Z,6.88
2022-08-14T19:05:47.781Z,7.47
2022-08-14T19:08:24.921Z,6.40
2022-08-14T19:10:51.885Z,9.98
2022-08-14T19:13:48.438Z,7.90
2022-08-14T19:16:16.895Z,8.13
2022-08-14T19:18:48.100Z,6.32
2022-08-14T19:21:24.758Z,7.78
2022-08-14T19:24:27.156Z,7.15
2022-08-14T19:27:13.957Z,7.10
2022-08-14T19:29:43.211Z,8.93
2022-08-14T19:32:44.018Z,7.55
2022-08-14T19:35:19.272Z,8.95
2022-08-14T19:37:54.111Z,7.30
2022-08-14T19:40:31.657Z,7.90
2022-08-14T19:43:01.188Z,9.50
2022-08-14T19:45:33.741Z,7.85
2022-08-14T19:48:00.878Z,9.15
2022-08-14T19:50:37.935Z,8.73
2022-08-14T19:53:11.841Z,8.40
2022-08-14T19:55:47.387Z,11.25
2022-08-14T19:58:15.356Z,10.10
2022-08-14T20:00:52.494Z,10.63
2022-08-14T20:03:23.330Z,10.35
2022-08-14T20:06:01.429Z,11.43
2022-08-14T20:10:58.501Z,11.07
2022-08-14T20:12:03.006Z,10.93
2022-08-14T20:14:31.385Z,10.90
2022-08-14T20:17:06.166Z,11.88
2022-08-14T20:19:37.717Z,11.25
2022-08-14T20:22:35.531Z,11.55
2022-08-14T20:24:55.282Z,11.70
2022-08-14T20:27:24.819Z,12.50
2022-08-14T20:30:29.123Z,11.93
2022-08-14T20:33:10.937Z,13.27
2022-08-14T20:35:46.913Z,13.43
2022-08-14T20:38:30.895Z,12.10
2022-08-14T20:41:09.579Z,13.18
2022-08-14T20:43:56.538Z,13.82
2022-08-14T20:46:31.038Z,14.95
2022-08-14T20:48:58.554Z,15.02
2022-08-14T20:51:25.950Z,15.55
2022-08-14T20:54:03.919Z,15.05
2022-08-14T20:56:34.655Z,14.73
2022-08-14T20:59:20.706Z,16.20
2022-08-14T21:01:57.861Z,14.68
2022-08-14T21:04:31.900Z,17.65
2022-08-14T21:07:25.146Z,17.95
2022-08-14T21:10:04.849Z,15.52
2022-08-14T21:12:34.337Z,16.10
2022-08-14T21:15:02.511Z,15.77
2022-08-14T21:17:30.229Z,16.73
2022-08-14T21:19:56.761Z,19.55
2022-08-14T21:22:23.453Z,18.40
2022-08-14T21:24:52.105Z,16.10
2022-08-14T21:27:29.493Z,17.10
2022-08-14T21:30:04.678Z,18.15
2022-08-14T21:32:47.043Z,15.68
2022-08-14T21:35:17.353Z,16.30
2022-08-14T21:37:46.244Z,17.13
2022-08-14T21:40:39.834Z,15.88
2022-08-14T21:43:00.970Z,16.27
2022-08-14T21:45:28.054Z,19.38
2022-08-14T21:47:56.479Z,16.08
2022-08-14T21:51:00.067Z,19.48
2022-08-14T21:53:10.764Z,18.20
2022-08-14T21:55:37.782Z,16.42
2022-08-14T21:58:54.055Z,16.98
2022-08-14T22:00:51.509Z,18.67
2022-08-14T22:03:24.197Z,18.70
2022-08-14T22:05:51.863Z,17.42
2022-08-14T22:08:19.207Z,19.92
2022-08-14T22:10:46.840Z,17.73
2022-08-14T22:13:14.213Z,17.13
2022-08-14T22:15:43.874Z,17.40
2022-08-14T22:18:20.127Z,18.15
2022-08-14T22:20:47.705Z,18.58
2022-08-14T22:23:20.059Z,24.17
2022-08-14T22:25:46.705Z,17.05
2022-08-14T22:28:17.919Z,20.27
2022-08-14T22:30:44.841Z,19.95
2022-08-14T22:33:13.694Z,20.52
2022-08-14T22:35:40.331Z,18.23
2022-08-14T22:38:35.679Z,20.08
2022-08-14T22:41:24.871Z,18.55
2022-08-14T22:43:42.833Z,19.88
2022-08-14T22:46:14.470Z,24.02
2022-08-14T22:48:41.738Z,22.17
2022-08-14T22:51:08.233Z,23.15
2022-08-14T22:53:34.754Z,19.83
2022-08-14T22:56:01.312Z,22.08
2022-08-14T22:58:34.731Z,18.67
2022-08-14T23:01:01.658Z,21.02
2022-08-14T23:03:28.924Z,20.75
2022-08-14T23:05:55.659Z,20.88
2022-08-14T23:08:59.889Z,21.05
2022-08-14T23:11:10.232Z,22.52
2022-08-14T23:13:40.279Z,23.05
2022-08-14T23:16:10.051Z,19.48
2022-08-14T23:18:46.805Z,19.95
2022-08-14T23:21:24.502Z,24.17
2022-08-14T23:23:55.137Z,22.98
2022-08-14T23:26:48.551Z,21.27
2022-08-14T23:29:08.543Z,21.00
2022-08-14T23:31:38.516Z,24.98
2022-08-14T23:34:07.382Z,22.80
2022-08-14T23:36:38.097Z,24.58
2022-08-14T23:39:20.904Z,27.75
2022-08-14T23:41:52.762Z,22.60
2022-08-14T23:44:21.582Z,21.00
2022-08-14T23:46:49.362Z,26.13
2022-08-14T23:49:21.312Z,24.70
2022-08-14T23:52:51.665Z,23.65
2022-08-14T23:54:48.073Z,27.10
2022-08-14T23:57:16.392Z,26.38
2022-08-14T23:59:54.850Z,22.98
